Information Last Ob Photographs Meteogram Network Table Neighbors Monthly Summaries Observation History Wind Roses Custom Wind Roses Data Calendar Satellite Cloud Product Download Terminal Aerodome Forecast

15 April 2024 Observation History, [DAL] DALLAS/LOVE FIELD, timezone: America/Chicago

Select Date: Time Order:

Show METARs   Show High Frequency MADIS

Previous Day
Time Wind
(mph)
Vis.
(mi.)
Sky Cond.
(100s ft)
Present Wx Temperature (ºF) Relative
Humidity
Pressure Snow
Depth
(in)
Precipitation (in.)
Air Dwpt Feels Like 6 hour altimeter
(in.)
sea level
(mb)
1 hr 3 hr 6 hr
Max.Min.
12:00 AMSSE 12G 1810 CLR
% 29.9
KDAL 150500Z AUTO 16010G16KT 10SM CLR 23/18 A2990 RMK T02300180 MADISHF
12:05 AMSSE 1010 CLR
% 29.9
KDAL 150505Z AUTO 16009KT 10SM CLR 23/18 A2990 RMK T02300180 MADISHF
12:10 AMSSE 1010 CLR
% 29.91
KDAL 150510Z AUTO 16009KT 10SM CLR 23/18 A2991 RMK T02300180 MADISHF
12:15 AMSSE 910 CLR
% 29.9
KDAL 150515Z AUTO 16008KT 10SM CLR 23/18 A2990 RMK T02300180 MADISHF
12:20 AMSSE 1210 CLR
% 29.9
KDAL 150520Z AUTO 16010KT 10SM CLR 23/18 A2990 RMK T02300180 MADISHF
12:25 AMS 1010 CLR
% 29.9
KDAL 150525Z AUTO 17009KT 10SM CLR 23/18 A2990 RMK T02300180 MADISHF
12:30 AMS 1310 CLR
% 29.9
KDAL 150530Z AUTO 17011KT 10SM CLR 23/18 A2990 RMK T02300180 MADISHF
12:35 AMS 1210 CLR
% 29.9
KDAL 150535Z AUTO 17010KT 10SM CLR 23/18 A2990 RMK T02300180 MADISHF
12:40 AMS 810 CLR
% 29.9
KDAL 150540Z AUTO 17007KT 10SM CLR 23/18 A2990 RMK T02300180 MADISHF
12:45 AMSSE 1310 CLR
% 29.9
KDAL 150545Z AUTO 16011KT 10SM CLR 23/18 A2990 RMK T02300180 MADISHF
12:50 AMS 1010 % 29.9
KDAL 150550Z AUTO 17009KT 10SM 23/18 A2990 RMK T02300180 MADISHF
12:53 AMS 1010 SCT200
BKN250
736473 78 73 73% 29.91011.80
KDAL 150553Z 17009KT 10SM SCT200 BKN250 23/18 A2990 RMK AO2 SLP118 T02280178 10256 20228 402720178 56005
12:55 AMS 1010 CLR
% 29.9
KDAL 150555Z AUTO 17009KT 10SM CLR 23/18 A2990 RMK T02300180 MADISHF
1:00 AMS 1010 CLR
% 29.9
KDAL 150600Z AUTO 17009KT 10SM CLR 23/18 A2990 RMK T02300180 MADISHF
1:05 AMS 15G 2110 CLR
% 29.89
KDAL 150605Z AUTO 17013G18KT 10SM CLR 23/18 A2989 RMK T02300180 MADISHF
1:05 AMM10 CLR
% 29.89
KDAL 150605Z AUTO /////G18KT 10SM CLR 23/18 A2989 RMK T02300180 MADISHF
1:10 AMS 13G 2010 CLR
% 29.89
KDAL 150610Z AUTO 17011G17KT 10SM CLR 22/18 A2989 RMK T02200180 MADISHF
1:15 AMS 13G 2110 CLR
% 29.89
KDAL 150615Z AUTO 17011G18KT 10SM CLR 23/18 A2989 RMK T02300180 MADISHF
1:20 AMS 1010 CLR
% 29.89
KDAL 150620Z AUTO 17009KT 10SM CLR 22/18 A2989 RMK T02200180 MADISHF
1:25 AMS 1310 CLR
% 29.89
KDAL 150625Z AUTO 17011KT 10SM CLR 22/18 A2989 RMK T02200180 MADISHF
1:30 AMS 1210 CLR
% 29.89
KDAL 150630Z AUTO 18010KT 10SM CLR 22/18 A2989 RMK T02200180 MADISHF
1:35 AMS 10G 1610 CLR
% 29.89
KDAL 150635Z AUTO 18009G14KT 10SM CLR 22/18 A2989 RMK T02200180 MADISHF
1:40 AMS 910 CLR
% 29.89
KDAL 150640Z AUTO 17008KT 10SM CLR 22/18 A2989 RMK T02200180 MADISHF
1:45 AMS 1510 CLR
% 29.89
KDAL 150645Z AUTO 17013KT 10SM CLR 22/18 A2989 RMK T02200180 MADISHF
1:50 AMS 13G 2010 CLR
% 29.89
KDAL 150650Z AUTO 18011G17KT 10SM CLR 22/18 A2989 RMK T02200180 MADISHF
1:53 AMS 13G 2310 BKN200
BKN250
726472 76% 29.881011.30
KDAL 150653Z 17011G20KT 10SM BKN200 BKN250 22/18 A2988 RMK AO2 SLP113 T02220178
1:55 AMS 13G 2010 CLR
% 29.88
KDAL 150655Z AUTO 17011G17KT 10SM CLR 22/18 A2988 RMK T02200180 MADISHF
2:00 AMS 910 CLR
% 29.88
KDAL 150700Z AUTO 18008KT 10SM CLR 22/18 A2988 RMK T02200180 MADISHF
2:05 AMS 13G 2210 CLR
% 29.88
KDAL 150705Z AUTO 17011G19KT 10SM CLR 22/18 A2988 RMK T02200180 MADISHF
2:10 AMS 1310 CLR
% 29.88
KDAL 150710Z AUTO 18011KT 10SM CLR 22/18 A2988 RMK T02200180 MADISHF
2:15 AMS 810 CLR
% 29.88
KDAL 150715Z AUTO 17007KT 10SM CLR 22/18 A2988 RMK T02200180 MADISHF
2:20 AMS 1310 CLR
% 29.88
KDAL 150720Z AUTO 18011KT 10SM CLR 22/18 A2988 RMK T02200180 MADISHF
2:25 AMS 910 CLR
% 29.87
KDAL 150725Z AUTO 17008KT 10SM CLR 22/18 A2987 RMK T02200180 MADISHF
2:30 AMSSE 1010 CLR
% 29.87
KDAL 150730Z AUTO 16009KT 10SM CLR 22/18 A2987 RMK T02200180 MADISHF
2:35 AMS 13G 2010 CLR
% 29.87
KDAL 150735Z AUTO 17011G17KT 10SM CLR 22/18 A2987 RMK T02200180 MADISHF
2:35 AMM10 CLR
% 29.87
KDAL 150735Z AUTO /////G17KT 10SM CLR 22/18 A2987 RMK T02200180 MADISHF
2:40 AMS 12G 1710 CLR
% 29.87
KDAL 150740Z AUTO 17010G15KT 10SM CLR 22/18 A2987 RMK T02200180 MADISHF
2:45 AMS 910 CLR
% 29.86
KDAL 150745Z AUTO 17008KT 10SM CLR 22/18 A2986 RMK T02200180 MADISHF
2:50 AMS 12G 1710 FEW015
% 29.86
KDAL 150750Z AUTO 18010G15KT 10SM FEW015 22/18 A2986 RMK T02200180 MADISHF
2:53 AMS 12G 1810 FEW015
OVC250
706470 81% 29.861010.50
KDAL 150753Z 17010G16KT 10SM FEW015 OVC250 21/18 A2986 RMK AO2 SLP105 T02110178
2:55 AMS 1310 CLR
% 29.86
KDAL 150755Z AUTO 17011KT 10SM CLR 21/18 A2986 RMK T02100180 MADISHF
3:00 AMS 910 CLR
% 29.86
KDAL 150800Z AUTO 17008KT 10SM CLR 21/18 A2986 RMK T02100180 MADISHF
3:05 AMS 1010 CLR
% 29.86
KDAL 150805Z AUTO 17009KT 10SM CLR 21/18 A2986 RMK T02100180 MADISHF
3:10 AMS 1210 CLR
% 29.85
KDAL 150810Z AUTO 17010KT 10SM CLR 21/18 A2985 RMK T02100180 MADISHF
3:15 AMS 10G 1710 CLR
% 29.85
KDAL 150815Z AUTO 17009G15KT 10SM CLR 21/18 A2985 RMK T02100180 MADISHF
3:20 AMS 1010 CLR
% 29.85
KDAL 150820Z AUTO 17009KT 10SM CLR 21/18 A2985 RMK T02100180 MADISHF
3:25 AMS 1010 CLR
% 29.85
KDAL 150825Z AUTO 17009KT 10SM CLR 21/18 A2985 RMK T02100180 MADISHF
3:30 AMSSE 13G 2010 CLR
% 29.85
KDAL 150830Z AUTO 16011G17KT 10SM CLR 21/18 A2985 RMK T02100180 MADISHF
3:35 AMS 910 CLR
% 29.85
KDAL 150835Z AUTO 17008KT 10SM CLR 21/18 A2985 RMK T02100180 MADISHF
3:40 AMS 1210 CLR
% 29.85
KDAL 150840Z AUTO 17010KT 10SM CLR 21/18 A2985 RMK T02100180 MADISHF
3:45 AMSSE 13G 1810 FEW017
% 29.84
KDAL 150845Z AUTO 16011G16KT 10SM FEW017 21/18 A2984 RMK T02100180 MADISHF
3:50 AMSSE 1210 BKN017
% 29.84
KDAL 150850Z AUTO 16010KT 10SM BKN017 21/18 A2984 RMK T02100180 MADISHF
3:53 AMS 1410 BKN017
OVC250
696469 84% 29.841009.80
KDAL 150853Z 17012KT 10SM BKN017 OVC250 21/18 A2984 RMK AO2 SLP098 T02060178 58019
4:00 AMS 910 BKN017
% 29.84
KDAL 150900Z AUTO 17008KT 10SM BKN017 21/18 A2984 RMK T02100180 MADISHF
4:05 AMSSE 13G 1810 BKN017
% 29.84
KDAL 150905Z AUTO 16011G16KT 10SM BKN017 21/18 A2984 RMK T02100180 MADISHF
4:10 AMSSE 1010 OVC017
% 29.84
KDAL 150910Z AUTO 16009KT 10SM OVC017 21/18 A2984 RMK T02100180 MADISHF
4:15 AMSSE 810 OVC016
% 29.85
KDAL 150915Z AUTO 16007KT 10SM OVC016 21/18 A2985 RMK T02100180 MADISHF
4:20 AMS 610 OVC016
% 29.84
KDAL 150920Z AUTO 17005KT 10SM OVC016 21/18 A2984 RMK T02100180 MADISHF
4:25 AMS 910 OVC016
% 29.84
KDAL 150925Z AUTO 17008KT 10SM OVC016 21/18 A2984 RMK T02100180 MADISHF
4:30 AMSSE 1010 OVC015
% 29.84
KDAL 150930Z AUTO 16009KT 10SM OVC015 21/18 A2984 RMK T02100180 MADISHF
4:35 AMS 910 OVC015
% 29.83
KDAL 150935Z AUTO 17008KT 10SM OVC015 21/18 A2983 RMK T02100180 MADISHF
4:40 AMS 910 OVC015
% 29.83
KDAL 150940Z AUTO 17008KT 10SM OVC015 21/18 A2983 RMK T02100180 MADISHF
4:45 AMS 810 OVC015
% 29.84
KDAL 150945Z AUTO 18007KT 10SM OVC015 21/18 A2984 RMK T02100180 MADISHF
4:50 AMSSW 1010 OVC015
% 29.84
KDAL 150950Z AUTO 19009KT 10SM OVC015 21/18 A2984 RMK T02100180 MADISHF
4:53 AMS 14G 2210 OVC015
706470 81% 29.8510100
KDAL 150953Z 18012G19KT 10SM OVC015 21/18 A2985 RMK AO2 SLP100 T02110178
5:00 AMS 1210 OVC014
% 29.84
KDAL 151000Z AUTO 18010KT 10SM OVC014 21/18 A2984 RMK T02100180 MADISHF
5:05 AMS 9G 2110 OVC014
706570 84% 29.840
KDAL 151005Z 17008G18KT 10SM OVC014 21/18 A2984 RMK AO2 T02110183
5:05 AMS 910 OVC014
% 29.84
KDAL 151005Z AUTO 17008KT 10SM OVC014 21/18 A2984 RMK T02100180 MADISHF
5:10 AMS 10G 1610 OVC014
% 29.84
KDAL 151010Z AUTO 18009G14KT 10SM OVC014 21/18 A2984 RMK T02100180 MADISHF
5:15 AMSSW 1010 OVC014
% 29.85
KDAL 151015Z AUTO 19009KT 10SM OVC014 21/18 A2985 RMK T02100180 MADISHF
5:20 AMS 810 OVC014
% 29.84
KDAL 151020Z AUTO 18007KT 10SM OVC014 21/18 A2984 RMK T02100180 MADISHF
5:25 AMS 13G 1810 OVC014
% 29.85
KDAL 151025Z AUTO 17011G16KT 10SM OVC014 21/18 A2985 RMK T02100180 MADISHF
5:30 AMS 810 OVC014
% 29.85
KDAL 151030Z AUTO 18007KT 10SM OVC014 21/18 A2985 RMK T02100180 MADISHF

The IEM API webservice that provided data to this page. For more details, see documentation.

Data Notes

  • For recent years, this page also optionally shows observations from the MADIS High Frequency METAR dataset. This dataset had a problem with temperatures detailed here.